createdAt,value
2019-02-26T00:01:57.430Z,16.60
2019-02-26T00:04:27.393Z,15.30
2019-02-26T00:06:57.956Z,18.70
2019-02-26T00:09:27.636Z,19.27
2019-02-26T00:11:58.153Z,15.37
2019-02-26T00:14:27.575Z,16.40
2019-02-26T00:16:57.466Z,15.87
2019-02-26T00:19:26.222Z,18.43
2019-02-26T00:21:55.618Z,21.03
2019-02-26T00:24:25.133Z,17.87
2019-02-26T00:26:54.220Z,21.13
2019-02-26T00:29:23.303Z,16.60
2019-02-26T00:31:55.435Z,21.17
2019-02-26T00:34:23.918Z,15.77
2019-02-26T00:36:52.655Z,16.10
2019-02-26T00:39:23.219Z,19.60
2019-02-26T00:41:53.624Z,17.27
2019-02-26T00:44:25.051Z,18.70
2019-02-26T00:46:53.600Z,16.17
2019-02-26T00:49:25.826Z,17.67
2019-02-26T00:51:54.707Z,16.80
2019-02-26T00:54:24.501Z,18.40
2019-02-26T00:56:57.080Z,17.97
2019-02-26T00:59:25.889Z,16.27
2019-02-26T01:01:55.215Z,16.30
2019-02-26T01:04:25.115Z,17.87
2019-02-26T01:06:53.883Z,16.57
2019-02-26T01:09:23.059Z,17.20
2019-02-26T01:11:54.046Z,19.43
2019-02-26T01:14:24.632Z,20.27
2019-02-26T01:16:53.441Z,19.47
2019-02-26T01:19:22.526Z,18.73
2019-02-26T01:21:51.269Z,18.90
2019-02-26T01:24:21.491Z,20.87
2019-02-26T01:26:50.789Z,21.57
2019-02-26T01:29:20.905Z,19.10
2019-02-26T01:31:50.012Z,19.03
2019-02-26T01:34:20.362Z,20.63
2019-02-26T01:36:49.635Z,18.60
2019-02-26T01:39:21.578Z,22.07
2019-02-26T01:41:51.128Z,21.67
2019-02-26T01:44:20.628Z,17.37
2019-02-26T01:46:49.626Z,18.57
2019-02-26T01:49:19.200Z,17.90
2019-02-26T01:51:49.658Z,17.20
2019-02-26T01:54:19.599Z,16.43
2019-02-26T01:56:52.646Z,16.73
2019-02-26T01:59:19.213Z,19.30
2019-02-26T02:01:49.659Z,17.23
2019-02-26T02:04:19.604Z,18.97
2019-02-26T02:06:48.714Z,19.90
2019-02-26T02:09:20.405Z,20.97
2019-02-26T02:11:49.204Z,16.97
2019-02-26T02:14:18.216Z,20.60
2019-02-26T02:16:47.292Z,19.80
2019-02-26T02:19:20.113Z,19.10
2019-02-26T02:21:47.653Z,18.97
2019-02-26T02:24:17.464Z,18.57
2019-02-26T02:26:48.209Z,20.07
2019-02-26T02:29:19.207Z,20.07
2019-02-26T02:31:49.042Z,24.20
2019-02-26T02:34:18.080Z,16.63
2019-02-26T02:36:46.909Z,19.30
2019-02-26T02:39:18.262Z,20.10
2019-02-26T02:41:50.882Z,16.90
2019-02-26T02:44:17.950Z,18.47
2019-02-26T02:46:47.790Z,17.97
2019-02-26T02:49:17.934Z,21.43
2019-02-26T02:51:47.093Z,19.17
2019-02-26T02:54:18.117Z,18.27
2019-02-26T02:56:46.321Z,19.33
2019-02-26T02:59:16.545Z,20.83
2019-02-26T03:01:48.887Z,18.03
2019-02-26T03:04:19.503Z,24.00
2019-02-26T03:06:46.734Z,22.30
2019-02-26T03:09:17.764Z,24.40
2019-02-26T03:11:47.145Z,24.70
2019-02-26T03:14:18.660Z,22.90
2019-02-26T03:16:48.600Z,22.83
2019-02-26T03:19:18.069Z,21.90
2019-02-26T03:21:47.198Z,22.70
2019-02-26T03:24:17.791Z,23.43
2019-02-26T03:26:46.844Z,21.47
2019-02-26T03:29:15.597Z,22.57
2019-02-26T03:31:46.780Z,23.80
2019-02-26T03:34:20.421Z,20.70
2019-02-26T03:36:45.819Z,19.83
2019-02-26T03:39:14.748Z,19.03
2019-02-26T03:41:45.804Z,19.53
2019-02-26T03:44:13.936Z,16.93
2019-02-26T03:46:42.706Z,19.60
2019-02-26T03:49:11.793Z,18.33
2019-02-26T03:51:40.865Z,18.87
2019-02-26T03:54:09.610Z,19.23
2019-02-26T03:56:38.728Z,19.77
2019-02-26T03:59:09.556Z,18.60
2019-02-26T04:01:38.108Z,17.83
2019-02-26T04:04:07.744Z,22.33
2019-02-26T04:06:38.430Z,17.77
2019-02-26T04:09:08.585Z,23.03
2019-02-26T04:11:39.606Z,18.77
2019-02-26T04:14:12.139Z,21.70
2019-02-26T04:16:41.128Z,18.63
2019-02-26T04:19:09.501Z,18.47
2019-02-26T04:22:26.337Z,16.37
2019-02-26T04:25:00.916Z,16.67
2019-02-26T04:27:57.051Z,18.83
2019-02-26T04:30:39.327Z,17.13
2019-02-26T04:33:53.766Z,17.53
2019-02-26T04:37:01.559Z,21.30
2019-02-26T04:40:20.278Z,20.30
2019-02-26T04:43:31.371Z,19.73
2019-02-26T04:46:22.025Z,19.57
2019-02-26T04:48:51.193Z,16.07
2019-02-26T04:51:20.449Z,20.03
2019-02-26T04:53:51.929Z,20.97
2019-02-26T04:56:20.468Z,17.60
2019-02-26T04:58:49.281Z,20.37
2019-02-26T05:01:19.224Z,21.13
2019-02-26T05:03:48.762Z,17.97
2019-02-26T05:06:17.520Z,17.27
2019-02-26T05:08:46.276Z,18.43
2019-02-26T05:11:28.622Z,17.27
2019-02-26T05:13:45.485Z,23.00
2019-02-26T05:16:14.248Z,17.63
2019-02-26T05:18:44.478Z,18.20
2019-02-26T05:21:13.555Z,17.50
2019-02-26T05:23:42.393Z,19.83
2019-02-26T05:26:14.491Z,18.03
2019-02-26T05:28:44.343Z,20.33
2019-02-26T05:31:15.113Z,20.00
2019-02-26T05:33:43.202Z,20.03
2019-02-26T05:36:14.272Z,20.30
2019-02-26T05:38:42.718Z,22.57
2019-02-26T05:41:11.979Z,21.50
2019-02-26T05:43:41.008Z,22.33
2019-02-26T05:46:09.764Z,19.83
2019-02-26T05:48:39.971Z,19.83
2019-02-26T05:51:11.431Z,20.33
2019-02-26T05:53:40.639Z,18.30
2019-02-26T05:56:11.500Z,19.57
2019-02-26T05:58:41.869Z,20.30
2019-02-26T06:01:10.596Z,17.53
2019-02-26T06:03:40.968Z,18.67
2019-02-26T06:06:10.605Z,19.00
2019-02-26T06:08:41.289Z,22.60
2019-02-26T06:11:09.874Z,24.37
2019-02-26T06:13:40.981Z,25.50
2019-02-26T06:16:09.198Z,20.20
2019-02-26T06:18:41.215Z,19.87
2019-02-26T06:21:08.728Z,24.37
2019-02-26T06:23:39.336Z,20.87
2019-02-26T06:26:13.986Z,21.03
2019-02-26T06:28:40.965Z,23.17
2019-02-26T06:31:12.195Z,21.43
2019-02-26T06:33:43.117Z,21.77
2019-02-26T06:36:11.731Z,18.70
2019-02-26T06:38:40.476Z,17.20
2019-02-26T06:41:09.327Z,18.57
2019-02-26T06:43:40.003Z,19.67
2019-02-26T06:46:11.525Z,23.13
2019-02-26T06:48:39.286Z,20.87
2019-02-26T06:51:08.375Z,21.93
2019-02-26T06:53:37.380Z,22.77
2019-02-26T06:56:06.140Z,20.73
2019-02-26T06:58:35.807Z,20.57
2019-02-26T07:01:07.153Z,22.93
2019-02-26T07:03:35.847Z,28.53
2019-02-26T07:06:04.974Z,28.47
2019-02-26T07:08:33.794Z,28.17
2019-02-26T07:11:03.821Z,31.60
2019-02-26T07:13:33.939Z,26.20
2019-02-26T07:16:05.174Z,25.03
2019-02-26T07:18:34.543Z,24.57
2019-02-26T07:21:03.313Z,21.27
2019-02-26T07:23:33.124Z,21.87
2019-02-26T07:26:03.056Z,24.80
2019-02-26T07:28:32.024Z,25.70
2019-02-26T07:31:02.696Z,23.60
2019-02-26T07:33:32.911Z,22.53
2019-02-26T07:36:04.173Z,20.10
2019-02-26T07:38:40.793Z,26.20
2019-02-26T07:41:04.190Z,19.27
2019-02-26T07:43:36.676Z,21.93
2019-02-26T07:46:04.565Z,21.33
2019-02-26T07:48:33.762Z,21.67
2019-02-26T07:51:03.230Z,24.73
2019-02-26T07:53:32.318Z,23.77
2019-02-26T07:56:01.762Z,19.90
2019-02-26T07:58:33.285Z,20.73
2019-02-26T08:01:02.274Z,20.40
2019-02-26T08:03:31.059Z,21.20
2019-02-26T08:06:04.097Z,21.93
2019-02-26T08:08:30.603Z,18.90
2019-02-26T08:10:59.334Z,21.10
2019-02-26T08:13:29.712Z,19.33
2019-02-26T08:16:00.154Z,20.83
2019-02-26T08:18:29.377Z,19.80
2019-02-26T08:21:00.737Z,23.23
2019-02-26T08:23:28.604Z,29.03
2019-02-26T08:25:59.699Z,23.33
2019-02-26T08:28:28.260Z,19.80
2019-02-26T08:30:57.259Z,23.07
2019-02-26T08:33:26.145Z,21.63
2019-02-26T08:35:56.066Z,23.03
2019-02-26T08:38:29.321Z,24.87
2019-02-26T08:40:55.524Z,25.87
2019-02-26T08:43:24.966Z,24.73
2019-02-26T08:45:53.720Z,20.37
2019-02-26T08:48:24.517Z,25.30
2019-02-26T08:50:52.936Z,23.10
2019-02-26T08:53:24.274Z,23.20
2019-02-26T08:55:54.160Z,22.03
2019-02-26T08:58:25.758Z,25.17
2019-02-26T09:00:54.508Z,24.03
2019-02-26T09:03:23.276Z,21.87
2019-02-26T09:05:53.822Z,24.80
2019-02-26T09:08:22.487Z,25.03
2019-02-26T09:10:51.694Z,22.30
2019-02-26T09:13:20.438Z,23.97
2019-02-26T09:15:49.456Z,25.07
2019-02-26T09:18:20.489Z,22.07
2019-02-26T09:20:49.301Z,23.30
2019-02-26T09:23:20.818Z,21.23
2019-02-26T09:25:54.158Z,21.83
2019-02-26T09:28:20.552Z,20.73
2019-02-26T09:30:50.374Z,24.40
2019-02-26T09:33:19.121Z,26.03
2019-02-26T09:35:49.763Z,22.93
2019-02-26T09:38:20.769Z,24.40
2019-02-26T09:40:50.109Z,25.37
2019-02-26T09:43:22.049Z,23.97
2019-02-26T09:45:52.882Z,25.70
2019-02-26T09:48:22.037Z,27.50
2019-02-26T09:50:50.954Z,28.17
2019-02-26T09:53:19.730Z,27.70
2019-02-26T09:55:48.755Z,28.80
2019-02-26T09:58:18.574Z,30.70
2019-02-26T10:00:50.908Z,26.07
2019-02-26T10:03:18.580Z,30.97
2019-02-26T10:05:48.212Z,27.17
2019-02-26T10:08:19.796Z,25.63
2019-02-26T10:10:48.606Z,27.37
2019-02-26T10:13:18.266Z,29.13
2019-02-26T10:15:47.878Z,27.77
2019-02-26T10:18:16.626Z,30.60
2019-02-26T10:20:47.534Z,27.03
2019-02-26T10:23:15.853Z,29.50
2019-02-26T10:25:44.599Z,31.20
2019-02-26T10:28:14.090Z,32.07
2019-02-26T10:30:44.085Z,34.60
2019-02-26T10:33:12.818Z,34.33
2019-02-26T10:35:44.421Z,30.07
2019-02-26T10:38:12.211Z,30.90
2019-02-26T10:40:53.372Z,33.40
2019-02-26T10:43:12.168Z,31.20
2019-02-26T10:45:44.167Z,28.97
2019-02-26T10:48:13.209Z,31.57
2019-02-26T10:50:45.590Z,47.97
2019-02-26T10:53:14.227Z,29.67
2019-02-26T10:55:44.078Z,35.27
2019-02-26T10:58:13.343Z,31.63
2019-02-26T11:00:42.708Z,29.90
2019-02-26T11:03:12.928Z,30.03
2019-02-26T11:05:42.651Z,30.97
2019-02-26T11:08:12.437Z,34.17
2019-02-26T11:10:43.907Z,33.23
2019-02-26T11:13:12.994Z,27.27
2019-02-26T11:15:42.324Z,27.67
2019-02-26T11:18:11.753Z,32.83
2019-02-26T11:20:41.564Z,29.50
2019-02-26T11:23:13.288Z,26.30
2019-02-26T11:25:40.790Z,28.30
2019-02-26T11:28:11.961Z,24.40
2019-02-26T11:30:40.325Z,28.97
2019-02-26T11:33:11.374Z,26.50
2019-02-26T11:35:41.610Z,26.00
2019-02-26T11:38:12.355Z,29.23
2019-02-26T11:40:40.493Z,27.30
2019-02-26T11:43:12.348Z,24.07
2019-02-26T11:45:41.811Z,24.87
2019-02-26T11:48:10.553Z,23.43
2019-02-26T11:50:39.284Z,24.70
2019-02-26T11:53:09.879Z,23.80
2019-02-26T11:55:38.563Z,22.97
2019-02-26T11:58:10.052Z,25.80
2019-02-26T12:00:50.681Z,19.07
2019-02-26T12:03:22.693Z,20.73
2019-02-26T12:05:49.782Z,24.33
2019-02-26T12:08:20.098Z,21.87
2019-02-26T12:10:52.094Z,21.73
2019-02-26T12:13:22.205Z,19.30
2019-02-26T12:15:50.397Z,22.73
2019-02-26T12:18:19.938Z,24.20
2019-02-26T12:20:50.706Z,23.10
2019-02-26T12:23:22.803Z,20.13
2019-02-26T12:25:53.565Z,22.00
2019-02-26T12:28:21.604Z,25.57
2019-02-26T12:30:50.363Z,17.47
2019-02-26T12:33:19.124Z,17.27
2019-02-26T12:35:48.467Z,18.67
2019-02-26T12:38:21.152Z,16.57
2019-02-26T12:40:49.956Z,19.23
2019-02-26T12:43:19.267Z,19.27
2019-02-26T12:45:48.242Z,19.17
2019-02-26T12:48:19.657Z,20.33
2019-02-26T12:50:47.729Z,16.33
2019-02-26T12:53:18.058Z,16.13
2019-02-26T12:55:47.357Z,14.13
2019-02-26T12:58:18.706Z,14.63
2019-02-26T13:00:46.920Z,13.70
2019-02-26T13:03:19.450Z,11.80
2019-02-26T13:05:49.161Z,11.93
2019-02-26T13:08:19.587Z,10.50
2019-02-26T13:10:54.416Z,9.77
2019-02-26T13:13:18.502Z,10.60
2019-02-26T13:15:47.244Z,12.23
2019-02-26T13:18:16.020Z,11.23
2019-02-26T13:20:44.771Z,13.53
2019-02-26T13:23:20.019Z,11.80
2019-02-26T13:29:31.395Z,11.00
2019-02-26T13:32:00.339Z,11.17
2019-02-26T13:34:29.388Z,15.30
2019-02-26T13:36:58.163Z,12.17
2019-02-26T13:39:33.028Z,11.13
2019-02-26T13:42:03.535Z,12.27
2019-02-26T13:44:28.745Z,12.23
2019-02-26T13:46:57.525Z,10.47
2019-02-26T13:49:26.511Z,9.23
2019-02-26T13:51:55.654Z,8.97
2019-02-26T13:54:25.061Z,10.17
2019-02-26T13:56:54.217Z,9.70
2019-02-26T13:59:23.203Z,10.97
2019-02-26T14:01:52.598Z,9.97
2019-02-26T14:04:21.526Z,10.40
2019-02-26T14:06:50.272Z,10.27
2019-02-26T14:09:19.289Z,7.63
2019-02-26T14:11:48.024Z,9.77
2019-02-26T14:14:17.063Z,8.03
2019-02-26T14:16:45.970Z,8.00
2019-02-26T14:19:14.745Z,9.43
2019-02-26T14:21:43.476Z,9.30
2019-02-26T14:24:12.584Z,9.83
2019-02-26T14:26:41.382Z,8.73
2019-02-26T14:29:10.151Z,9.37
2019-02-26T14:31:39.491Z,13.13
2019-02-26T14:34:08.229Z,9.83
2019-02-26T14:36:37.588Z,11.27
2019-02-26T14:39:08.128Z,8.50
2019-02-26T14:41:36.958Z,12.67
2019-02-26T14:44:05.734Z,10.87
2019-02-26T14:46:34.554Z,10.27
2019-02-26T14:49:03.331Z,11.13
2019-02-26T14:51:32.628Z,13.67
2019-02-26T14:54:01.408Z,11.33
2019-02-26T14:56:30.412Z,12.63
2019-02-26T14:58:59.187Z,11.17
2019-02-26T15:01:28.161Z,11.57
2019-02-26T15:03:57.740Z,12.83
2019-02-26T15:06:27.035Z,14.00
2019-02-26T15:08:56.079Z,11.03
2019-02-26T15:11:24.842Z,11.70
2019-02-26T15:13:53.611Z,13.97
2019-02-26T15:16:22.349Z,14.07
2019-02-26T15:18:51.382Z,13.30
2019-02-26T15:21:20.687Z,12.30
2019-02-26T15:23:50.361Z,13.47
2019-02-26T15:26:19.790Z,11.20
2019-02-26T15:28:49.138Z,13.40
2019-02-26T15:31:18.186Z,13.13
2019-02-26T15:33:46.952Z,14.23
2019-02-26T15:36:16.082Z,16.03
2019-02-26T15:38:44.849Z,12.33
2019-02-26T15:41:13.818Z,13.30
2019-02-26T15:43:42.858Z,12.30
2019-02-26T15:46:12.142Z,13.17
2019-02-26T15:48:41.576Z,13.30
2019-02-26T15:51:14.336Z,13.30
2019-02-26T15:53:41.392Z,12.73
2019-02-26T15:56:10.157Z,16.10
2019-02-26T15:58:38.889Z,17.63
2019-02-26T16:01:12.881Z,13.20
2019-02-26T16:03:42.686Z,12.03
2019-02-26T16:06:11.875Z,17.83
2019-02-26T16:08:41.299Z,19.60
2019-02-26T16:11:13.151Z,18.03
2019-02-26T16:13:42.316Z,15.13
2019-02-26T16:16:11.345Z,15.83
2019-02-26T16:18:40.338Z,14.30
2019-02-26T16:21:09.338Z,15.63
2019-02-26T16:23:38.065Z,16.20
2019-02-26T16:26:08.097Z,13.03
2019-02-26T16:28:38.229Z,14.00
2019-02-26T16:31:08.942Z,15.20
2019-02-26T16:33:37.987Z,12.23
2019-02-26T16:36:07.088Z,12.93
2019-02-26T16:38:36.383Z,13.57
2019-02-26T16:41:05.641Z,18.03
2019-02-26T16:43:34.869Z,14.70
2019-02-26T16:46:03.686Z,16.63
2019-02-26T16:48:33.260Z,16.33
2019-02-26T16:51:02.178Z,18.80
2019-02-26T16:53:33.464Z,14.17
2019-02-26T16:56:02.276Z,14.10
2019-02-26T16:58:35.188Z,12.90
2019-02-26T17:01:05.852Z,12.97
2019-02-26T17:03:34.961Z,14.13
2019-02-26T17:06:03.873Z,12.93
2019-02-26T17:08:33.200Z,12.80
2019-02-26T17:11:01.937Z,16.73
2019-02-26T17:13:31.063Z,12.53
2019-02-26T17:16:00.374Z,13.73
2019-02-26T17:18:29.435Z,16.90
2019-02-26T17:20:58.462Z,14.63
2019-02-26T17:23:27.197Z,15.80
2019-02-26T17:26:00.202Z,15.60
2019-02-26T17:28:27.599Z,15.73
2019-02-26T17:30:57.778Z,18.37
2019-02-26T17:33:27.593Z,15.97
2019-02-26T17:35:56.351Z,16.07
2019-02-26T17:38:26.094Z,19.43
2019-02-26T17:40:55.414Z,18.70
2019-02-26T17:43:25.163Z,18.87
2019-02-26T17:45:54.001Z,16.77
2019-02-26T17:48:22.739Z,17.97
2019-02-26T17:50:51.869Z,20.73
2019-02-26T17:53:20.887Z,17.43
2019-02-26T17:55:50.006Z,20.20
2019-02-26T17:58:18.794Z,21.57
2019-02-26T18:00:52.802Z,20.43
2019-02-26T18:03:21.585Z,18.07
2019-02-26T18:05:51.718Z,21.83
2019-02-26T18:08:20.990Z,23.00
2019-02-26T18:10:49.806Z,19.93
2019-02-26T18:13:20.439Z,20.40
2019-02-26T18:15:49.312Z,20.33
2019-02-26T18:18:18.372Z,19.13
2019-02-26T18:20:47.496Z,17.43
2019-02-26T18:23:16.579Z,21.60
2019-02-26T18:25:45.341Z,19.40
2019-02-26T18:28:14.683Z,21.10
2019-02-26T18:30:43.808Z,21.13
2019-02-26T18:33:12.550Z,21.27
2019-02-26T18:35:41.306Z,23.17
2019-02-26T18:38:10.077Z,19.60
2019-02-26T18:40:39.239Z,20.33
2019-02-26T18:43:08.002Z,30.20
2019-02-26T18:45:36.744Z,22.73
2019-02-26T18:48:05.545Z,22.10
2019-02-26T18:50:34.367Z,20.80
2019-02-26T18:53:03.165Z,19.77
2019-02-26T18:55:32.668Z,22.10
2019-02-26T18:58:01.866Z,19.90
2019-02-26T19:00:30.638Z,19.73
2019-02-26T19:02:59.562Z,23.83
2019-02-26T19:05:28.657Z,24.73
2019-02-26T19:07:57.472Z,21.17
2019-02-26T19:10:26.222Z,18.50
2019-02-26T19:12:54.978Z,18.37
2019-02-26T19:15:23.744Z,19.90
2019-02-26T19:17:53.614Z,20.57
2019-02-26T19:20:24.991Z,19.07
2019-02-26T19:22:53.838Z,22.27
2019-02-26T19:25:22.584Z,20.73
2019-02-26T19:27:53.089Z,19.80
2019-02-26T19:30:21.955Z,21.20
2019-02-26T19:32:50.726Z,22.67
2019-02-26T19:35:19.533Z,19.67
2019-02-26T19:37:50.113Z,22.73
2019-02-26T19:40:20.335Z,19.87
2019-02-26T19:42:52.610Z,21.13
2019-02-26T19:45:19.566Z,17.70
2019-02-26T19:47:48.611Z,19.50
2019-02-26T19:50:17.513Z,20.53
2019-02-26T19:52:46.356Z,20.53
2019-02-26T19:55:17.778Z,19.47
2019-02-26T19:57:46.524Z,18.03
2019-02-26T20:00:19.688Z,22.63
2019-02-26T20:02:46.225Z,17.30
2019-02-26T20:05:15.336Z,23.37
2019-02-26T20:07:44.378Z,20.97
2019-02-26T20:10:15.176Z,18.47
2019-02-26T20:12:44.600Z,19.53
2019-02-26T20:15:13.995Z,18.17
2019-02-26T20:17:42.819Z,18.63
2019-02-26T20:20:12.391Z,22.67
2019-02-26T20:22:41.135Z,19.27
2019-02-26T20:25:12.623Z,17.77
2019-02-26T20:27:41.478Z,17.57
2019-02-26T20:30:12.439Z,16.00
2019-02-26T20:32:42.125Z,23.83
2019-02-26T20:35:11.962Z,24.33
2019-02-26T20:37:41.434Z,18.57
2019-02-26T20:40:15.759Z,20.90
2019-02-26T20:42:42.845Z,20.37
2019-02-26T20:45:17.805Z,19.07
2019-02-26T20:47:46.202Z,19.37
2019-02-26T20:50:14.750Z,19.70
2019-02-26T20:52:43.553Z,19.77
2019-02-26T20:55:13.568Z,18.13
2019-02-26T20:57:42.657Z,21.03
2019-02-26T21:00:14.007Z,29.27
2019-02-26T21:02:42.778Z,21.27
2019-02-26T21:05:12.492Z,19.03
2019-02-26T21:07:41.664Z,20.83
2019-02-26T21:10:14.994Z,22.23
2019-02-26T21:12:41.888Z,17.13
2019-02-26T21:15:13.888Z,21.13
2019-02-26T21:17:43.264Z,19.43
2019-02-26T21:20:12.578Z,23.53
2019-02-26T21:22:41.805Z,21.90
2019-02-26T21:25:11.475Z,21.43
2019-02-26T21:27:40.375Z,21.47
2019-02-26T21:30:12.105Z,27.60
2019-02-26T21:32:41.715Z,24.37
2019-02-26T21:35:10.706Z,23.83
2019-02-26T21:37:39.471Z,22.70
2019-02-26T21:40:08.854Z,19.70
2019-02-26T21:42:37.608Z,22.83
2019-02-26T21:45:07.022Z,20.57
2019-02-26T21:47:35.856Z,19.33
2019-02-26T21:50:05.289Z,22.30
2019-02-26T21:52:34.375Z,18.77
2019-02-26T21:55:03.220Z,21.70
2019-02-26T21:57:31.969Z,20.60
2019-02-26T22:00:05.171Z,19.43
2019-02-26T22:02:31.419Z,19.77
2019-02-26T22:05:00.325Z,22.47
2019-02-26T22:07:29.480Z,25.30
2019-02-26T22:09:58.259Z,26.77
2019-02-26T22:12:27.034Z,21.20
2019-02-26T22:14:55.815Z,24.00
2019-02-26T22:17:25.782Z,20.27
2019-02-26T22:19:54.695Z,20.17
2019-02-26T22:22:26.006Z,21.53
2019-02-26T22:24:54.576Z,19.50
2019-02-26T22:27:23.326Z,22.23
2019-02-26T22:29:52.453Z,21.27
2019-02-26T22:32:21.210Z,21.27
2019-02-26T22:34:50.906Z,20.00
2019-02-26T22:37:20.801Z,20.23
2019-02-26T22:39:49.569Z,18.57
2019-02-26T22:42:18.363Z,17.57
2019-02-26T22:44:47.425Z,19.87
2019-02-26T22:47:16.531Z,18.80
2019-02-26T22:49:45.288Z,20.50
2019-02-26T22:52:14.049Z,20.27
2019-02-26T22:54:43.529Z,21.93
2019-02-26T22:57:12.583Z,21.27
2019-02-26T22:59:41.934Z,20.03
2019-02-26T23:02:11.057Z,21.53
2019-02-26T23:04:40.493Z,17.53
2019-02-26T23:07:09.238Z,17.67
2019-02-26T23:09:38.891Z,17.13
2019-02-26T23:12:08.821Z,16.73
2019-02-26T23:14:38.781Z,18.93
2019-02-26T23:17:09.664Z,19.47
2019-02-26T23:19:39.419Z,18.77
2019-02-26T23:22:08.595Z,20.03
2019-02-26T23:24:37.450Z,17.50
2019-02-26T23:27:07.236Z,18.10
2019-02-26T23:29:38.079Z,18.87
2019-02-26T23:32:07.651Z,19.53
2019-02-26T23:34:36.847Z,17.97
2019-02-26T23:37:06.731Z,17.13
2019-02-26T23:39:36.061Z,18.93
2019-02-26T23:42:06.053Z,17.47
2019-02-26T23:44:35.850Z,18.20
2019-02-26T23:47:04.963Z,17.27
2019-02-26T23:49:34.027Z,18.63
2019-02-26T23:52:03.166Z,18.20
2019-02-26T23:54:32.270Z,17.67
2019-02-26T23:57:01.022Z,19.73
2019-02-26T23:59:29.789Z,23.37
